createdAt,value
2017-04-18T00:00:17.438Z,99.99
2017-04-18T00:00:57.968Z,99.99
2017-04-18T00:01:38.514Z,99.99
2017-04-18T00:02:19.060Z,99.99
2017-04-18T00:02:59.601Z,99.99
2017-04-18T00:03:40.134Z,99.99
2017-04-18T00:04:20.671Z,99.99
2017-04-18T00:05:01.221Z,99.99
2017-04-18T00:05:41.822Z,99.99
2017-04-18T00:06:22.357Z,99.99
2017-04-18T00:07:02.899Z,99.99
2017-04-18T00:07:43.426Z,99.99
2017-04-18T00:08:23.958Z,99.99
2017-04-18T00:09:04.492Z,99.99
2017-04-18T00:09:45.029Z,99.99
2017-04-18T00:10:25.575Z,99.99
2017-04-18T00:11:06.113Z,99.99
2017-04-18T00:11:46.643Z,99.99
2017-04-18T00:12:27.185Z,99.99
2017-04-18T00:13:07.706Z,99.99
2017-04-18T00:13:48.230Z,99.99
2017-04-18T00:14:28.771Z,99.96
2017-04-18T00:15:09.296Z,99.99
2017-04-18T00:15:49.857Z,99.99
2017-04-18T00:16:30.388Z,99.99
2017-04-18T00:17:10.918Z,99.99
2017-04-18T00:17:51.480Z,99.99
2017-04-18T00:18:32.016Z,99.99
2017-04-18T00:19:12.550Z,99.99
2017-04-18T00:19:53.087Z,99.99
2017-04-18T00:20:33.637Z,99.99
2017-04-18T00:21:14.188Z,99.99
2017-04-18T00:21:54.742Z,99.99
2017-04-18T00:22:35.293Z,99.77
2017-04-18T00:23:15.844Z,99.99
2017-04-18T00:23:56.401Z,99.99
2017-04-18T00:24:36.927Z,99.96
2017-04-18T00:25:17.479Z,99.96
2017-04-18T00:25:58.043Z,99.96
2017-04-18T00:26:38.579Z,99.96
2017-04-18T00:27:19.111Z,99.2
2017-04-18T00:27:59.677Z,99.39
2017-04-18T00:28:40.215Z,99.49
2017-04-18T00:29:20.762Z,99.96
2017-04-18T00:30:01.327Z,99.49
2017-04-18T00:30:41.861Z,99.3
2017-04-18T00:31:22.399Z,99.58
2017-04-18T00:32:02.933Z,98.54
2017-04-18T00:32:43.472Z,99.01
2017-04-18T00:33:24.006Z,99.01
2017-04-18T00:34:04.543Z,99.11
2017-04-18T00:34:45.105Z,98.82
2017-04-18T00:35:25.652Z,98.73
2017-04-18T00:36:06.198Z,98.54
2017-04-18T00:36:46.757Z,98.92
2017-04-18T00:37:27.318Z,98.54
2017-04-18T00:38:07.860Z,97.21
2017-04-18T00:38:48.410Z,97.59
2017-04-18T00:39:28.960Z,96.83
2017-04-18T00:40:09.513Z,97.31
2017-04-18T00:40:50.047Z,97.4
2017-04-18T00:41:30.596Z,96.83
2017-04-18T00:42:11.144Z,96.64
2017-04-18T00:42:51.704Z,96.26
2017-04-18T00:43:32.245Z,95.5
2017-04-18T00:44:12.791Z,96.17
2017-04-18T00:44:53.326Z,96.08
2017-04-18T00:45:33.880Z,96.26
2017-04-18T00:46:14.417Z,96.26
2017-04-18T00:46:54.943Z,97.4
2017-04-18T00:47:35.474Z,97.21
2017-04-18T00:48:16.022Z,97.4
2017-04-18T00:48:56.549Z,97.02
2017-04-18T00:49:37.087Z,96.83
2017-04-18T00:50:17.632Z,97.21
2017-04-18T00:50:58.176Z,95.88
2017-04-18T00:51:38.705Z,96.17
2017-04-18T00:52:19.232Z,95.98
2017-04-18T00:52:59.773Z,95.98
2017-04-18T00:53:40.306Z,96.92
2017-04-18T00:54:20.865Z,96.17
2017-04-18T00:55:01.423Z,96.26
2017-04-18T00:55:41.974Z,95.98
2017-04-18T00:56:22.508Z,96.26
2017-04-18T00:57:03.038Z,96.55
2017-04-18T00:57:43.576Z,96.55
2017-04-18T00:58:24.141Z,96.55
2017-04-18T00:59:04.689Z,95.88
2017-04-18T00:59:45.237Z,96.55
2017-04-18T01:00:25.756Z,96.08
2017-04-18T01:01:06.291Z,96.92
2017-04-18T01:01:46.838Z,96.55
2017-04-18T01:02:27.387Z,96.45
2017-04-18T01:03:07.910Z,96.08
2017-04-18T01:03:48.446Z,95.79
2017-04-18T01:04:28.991Z,95.88
2017-04-18T01:05:09.519Z,94.93
2017-04-18T01:05:50.045Z,94.84
2017-04-18T01:06:30.590Z,94.65
2017-04-18T01:07:11.120Z,94.65
2017-04-18T01:07:51.666Z,94.27
2017-04-18T01:08:32.201Z,93.99
2017-04-18T01:09:12.736Z,94.27
2017-04-18T01:09:53.265Z,94.08
2017-04-18T01:10:33.796Z,94.08
2017-04-18T01:11:14.333Z,94.08
2017-04-18T01:11:54.857Z,93.84
2017-04-18T01:12:35.394Z,93.89
2017-04-18T01:13:15.936Z,93.51
2017-04-18T01:13:56.471Z,93.32
2017-04-18T01:14:37.008Z,93.56
2017-04-18T01:15:17.545Z,93.32
2017-04-18T01:15:58.091Z,93.13
2017-04-18T01:16:38.622Z,93.13
2017-04-18T01:17:19.153Z,92.85
2017-04-18T01:17:59.690Z,93.04
2017-04-18T01:18:40.230Z,93.61
2017-04-18T01:19:20.767Z,93.04
2017-04-18T01:20:01.308Z,92.71
2017-04-18T01:20:41.840Z,92.23
2017-04-18T01:21:22.379Z,92.52
2017-04-18T01:22:02.908Z,92.04
2017-04-18T01:22:43.463Z,92.76
2017-04-18T01:23:23.988Z,92.23
2017-04-18T01:24:04.526Z,91.47
2017-04-18T01:24:45.081Z,91.66
2017-04-18T01:25:25.608Z,91.57
2017-04-18T01:26:06.150Z,91.66
2017-04-18T01:26:46.693Z,91.76
2017-04-18T01:27:27.241Z,91.38
2017-04-18T01:28:07.779Z,91.09
2017-04-18T01:28:48.336Z,91.47
2017-04-18T01:29:28.865Z,91
2017-04-18T01:30:09.398Z,90.91
2017-04-18T01:30:49.940Z,91
2017-04-18T01:31:30.487Z,90.81
2017-04-18T01:32:11.039Z,90.91
2017-04-18T01:32:51.582Z,91.19
2017-04-18T01:33:32.112Z,90.05
2017-04-18T01:34:12.641Z,90.34
2017-04-18T01:34:53.185Z,89.67
2017-04-18T01:35:33.723Z,89.96
2017-04-18T01:36:14.260Z,89.77
2017-04-18T01:36:54.794Z,89.58
2017-04-18T01:37:35.389Z,89.29
2017-04-18T01:38:15.910Z,89.29
2017-04-18T01:38:56.445Z,89.48
2017-04-18T01:39:36.990Z,88.92
2017-04-18T01:40:17.522Z,88.63
2017-04-18T01:40:58.072Z,89.15
2017-04-18T01:41:38.608Z,88.68
2017-04-18T01:42:19.154Z,88.73
2017-04-18T01:42:59.680Z,88.73
2017-04-18T01:43:40.223Z,88.44
2017-04-18T01:44:20.764Z,87.97
2017-04-18T01:45:01.302Z,88.54
2017-04-18T01:45:41.828Z,87.97
2017-04-18T01:46:22.369Z,87.59
2017-04-18T01:47:02.916Z,88.06
2017-04-18T01:47:43.447Z,87.63
2017-04-18T01:48:23.976Z,87.49
2017-04-18T01:49:04.499Z,87.49
2017-04-18T01:49:45.038Z,87.3
2017-04-18T01:50:25.552Z,86.93
2017-04-18T01:51:06.077Z,86.93
2017-04-18T01:51:46.600Z,86.45
2017-04-18T01:52:27.135Z,86.93
2017-04-18T01:53:07.682Z,87.21
2017-04-18T01:53:48.214Z,86.97
2017-04-18T01:54:28.756Z,87.06
2017-04-18T01:55:09.272Z,86.97
2017-04-18T01:55:49.801Z,86.35
2017-04-18T01:56:30.329Z,86.4
2017-04-18T01:57:10.857Z,86.83
2017-04-18T01:57:51.387Z,86.68
2017-04-18T01:58:31.912Z,86.45
2017-04-18T01:59:12.445Z,86.78
2017-04-18T01:59:52.970Z,86.35
2017-04-18T02:00:33.488Z,87.02
2017-04-18T02:01:14.010Z,87.12
2017-04-18T02:01:54.539Z,86.87
2017-04-18T02:02:35.079Z,87.3
2017-04-18T02:03:15.602Z,86.93
2017-04-18T02:03:56.134Z,86.87
2017-04-18T02:04:36.665Z,86.45
2017-04-18T02:05:17.162Z,86.35
2017-04-18T02:05:57.687Z,86.16
2017-04-18T02:06:38.215Z,86.16
2017-04-18T02:07:18.735Z,86.26
2017-04-18T02:07:59.256Z,85.6
2017-04-18T02:08:39.767Z,85.41
2017-04-18T02:09:20.294Z,85.5
2017-04-18T02:10:00.835Z,85.78
2017-04-18T02:10:41.372Z,85.69
2017-04-18T02:11:21.890Z,85.5
2017-04-18T02:12:02.412Z,85.64
2017-04-18T02:12:42.945Z,85.22
2017-04-18T02:13:23.473Z,85.26
2017-04-18T02:14:04.006Z,85.03
2017-04-18T02:14:44.539Z,84.98
2017-04-18T02:15:25.064Z,86.4
2017-04-18T02:16:05.597Z,85.69
2017-04-18T02:16:46.111Z,85.22
2017-04-18T02:17:26.640Z,85.64
2017-04-18T02:18:07.164Z,85.41
2017-04-18T02:18:47.681Z,85.41
2017-04-18T02:19:28.260Z,85.31
2017-04-18T02:20:08.797Z,85.22
2017-04-18T02:20:49.326Z,85.31
2017-04-18T02:21:29.867Z,85.31
2017-04-18T02:22:10.403Z,85.41
2017-04-18T02:22:50.925Z,84.5
2017-04-18T02:23:31.456Z,84.69
2017-04-18T02:24:11.998Z,84.46
2017-04-18T02:24:52.517Z,84.69
2017-04-18T02:25:33.023Z,84.84
2017-04-18T02:26:13.546Z,84.84
2017-04-18T02:26:54.072Z,84.94
2017-04-18T02:27:34.601Z,84.46
2017-04-18T02:28:15.103Z,84.12
2017-04-18T02:28:55.622Z,83.98
2017-04-18T02:29:36.173Z,84.31
2017-04-18T02:30:16.671Z,83.51
2017-04-18T02:30:57.217Z,84.36
2017-04-18T02:31:37.731Z,83.8
2017-04-18T02:32:18.240Z,83.13
2017-04-18T02:32:58.780Z,83.36
2017-04-18T02:33:39.307Z,82.98
2017-04-18T02:34:19.830Z,82.79
2017-04-18T02:35:00.370Z,83.36
2017-04-18T02:35:40.901Z,82.56
2017-04-18T02:36:21.436Z,82.85
2017-04-18T02:37:01.958Z,83.13
2017-04-18T02:37:42.482Z,82.85
2017-04-18T02:38:23.027Z,83.04
2017-04-18T02:39:03.537Z,82.56
2017-04-18T02:39:44.066Z,83.04
2017-04-18T02:40:24.591Z,82.89
2017-04-18T02:41:05.110Z,82.94
2017-04-18T02:41:45.659Z,83.08
2017-04-18T02:42:26.159Z,82.75
2017-04-18T02:43:06.665Z,82.98
2017-04-18T02:43:47.189Z,82.98
2017-04-18T02:44:27.725Z,82.66
2017-04-18T02:45:08.236Z,82.85
2017-04-18T02:45:48.759Z,82.85
2017-04-18T02:46:29.286Z,82.28
2017-04-18T02:47:09.800Z,82.66
2017-04-18T02:47:50.326Z,83.04
2017-04-18T02:48:30.841Z,83.04
2017-04-18T02:49:11.381Z,82.28
2017-04-18T02:49:51.910Z,82.56
2017-04-18T02:50:32.435Z,82.28
2017-04-18T02:51:12.951Z,82.47
2017-04-18T02:51:53.487Z,82.09
2017-04-18T02:52:34.018Z,81.81
2017-04-18T02:53:14.533Z,82.09
2017-04-18T02:53:55.050Z,81.9
2017-04-18T02:54:35.566Z,81.81
2017-04-18T02:55:16.102Z,81.43
2017-04-18T02:55:56.628Z,81.33
2017-04-18T02:56:37.151Z,81.24
2017-04-18T02:57:17.675Z,81.62
2017-04-18T02:57:58.194Z,81.62
2017-04-18T02:58:38.720Z,81.14
2017-04-18T02:59:19.241Z,80.95
2017-04-18T02:59:59.786Z,80.95
2017-04-18T03:00:40.314Z,80.86
2017-04-18T03:01:20.857Z,80.57
2017-04-18T03:02:01.371Z,80.95
2017-04-18T03:02:41.900Z,80.76
2017-04-18T03:03:22.593Z,80.38
2017-04-18T03:04:03.326Z,80.48
2017-04-18T03:04:44.123Z,80.19
2017-04-18T03:05:24.834Z,80.57
2017-04-18T03:06:05.369Z,80.57
2017-04-18T03:06:45.910Z,80.1
2017-04-18T03:07:26.446Z,80.57
2017-04-18T03:08:06.984Z,79.72
2017-04-18T03:08:47.541Z,79.82
2017-04-18T03:09:28.094Z,79.91
2017-04-18T03:10:08.612Z,79.82
2017-04-18T03:10:49.136Z,80.1
2017-04-18T03:11:29.666Z,79.91
2017-04-18T03:12:10.216Z,79.82
2017-04-18T03:12:50.744Z,79.82
2017-04-18T03:13:31.272Z,79.63
2017-04-18T03:14:11.797Z,80.38
2017-04-18T03:14:52.332Z,80
2017-04-18T03:15:32.869Z,79.82
2017-04-18T03:16:13.403Z,79.63
2017-04-18T03:16:53.934Z,80
2017-04-18T03:17:34.459Z,79.34
2017-04-18T03:18:14.991Z,79.44
2017-04-18T03:18:55.519Z,79.44
2017-04-18T03:19:36.044Z,79.91
2017-04-18T03:20:16.575Z,80
2017-04-18T03:20:57.085Z,79.53
2017-04-18T03:21:37.617Z,79.34
2017-04-18T03:22:18.150Z,79.25
2017-04-18T03:22:58.658Z,79.44
2017-04-18T03:23:39.243Z,79.44
2017-04-18T03:24:19.730Z,79.34
2017-04-18T03:25:00.275Z,79.91
2017-04-18T03:25:40.793Z,80
2017-04-18T03:26:21.323Z,80.57
2017-04-18T03:27:01.868Z,79.91
2017-04-18T03:27:42.400Z,80.57
2017-04-18T03:28:22.917Z,80.48
2017-04-18T03:29:03.462Z,79.82
2017-04-18T03:29:43.966Z,79.72
2017-04-18T03:30:24.502Z,79.72
2017-04-18T03:31:05.012Z,80
2017-04-18T03:31:45.544Z,80.1
2017-04-18T03:32:26.099Z,79.72
2017-04-18T03:33:06.623Z,79.91
2017-04-18T03:33:47.156Z,79.44
2017-04-18T03:34:27.671Z,79.44
2017-04-18T03:35:08.205Z,79.82
2017-04-18T03:35:48.735Z,80
2017-04-18T03:36:29.269Z,79.72
2017-04-18T03:37:09.792Z,79.91
2017-04-18T03:37:50.329Z,80
2017-04-18T03:38:30.857Z,79.91
2017-04-18T03:39:11.407Z,79.63
2017-04-18T03:39:51.928Z,79.91
2017-04-18T03:40:32.457Z,79.44
2017-04-18T03:41:13.029Z,79.34
2017-04-18T03:41:53.526Z,79.25
2017-04-18T03:42:34.077Z,79.15
2017-04-18T03:43:14.622Z,79.06
2017-04-18T03:43:55.159Z,79.25
2017-04-18T03:44:35.680Z,79.44
2017-04-18T03:45:16.215Z,78.39
2017-04-18T03:45:56.736Z,78.49
2017-04-18T03:46:37.279Z,78.49
2017-04-18T03:47:17.805Z,79.06
2017-04-18T03:47:58.360Z,78.58
2017-04-18T03:48:38.885Z,78.15
2017-04-18T03:49:19.411Z,78.53
2017-04-18T03:49:59.944Z,78.53
2017-04-18T03:50:40.488Z,78.3
2017-04-18T03:51:21.017Z,78.3
2017-04-18T03:52:01.552Z,78.34
2017-04-18T03:52:42.084Z,78.77
2017-04-18T03:53:22.611Z,78.3
2017-04-18T03:54:03.138Z,78.49
2017-04-18T03:54:43.670Z,78.2
2017-04-18T03:55:24.217Z,78.2
2017-04-18T03:56:04.751Z,77.86
2017-04-18T03:56:45.287Z,77.92
2017-04-18T03:57:25.816Z,77.77
2017-04-18T03:58:06.346Z,77.35
2017-04-18T03:58:46.889Z,77.92
2017-04-18T03:59:27.436Z,77.96
2017-04-18T04:00:07.963Z,78.2
2017-04-18T04:00:48.494Z,78.49
2017-04-18T04:01:29.042Z,78.2
2017-04-18T04:02:09.572Z,78.58
2017-04-18T04:02:50.098Z,79.34
2017-04-18T04:03:30.627Z,79.25
2017-04-18T04:04:11.137Z,79.53
2017-04-18T04:04:51.653Z,79
2017-04-18T04:05:32.226Z,79.44
2017-04-18T04:06:12.751Z,79.25
2017-04-18T04:06:53.340Z,79.28
2017-04-18T04:07:33.883Z,79.63
2017-04-18T04:08:14.430Z,79.34
2017-04-18T04:08:54.981Z,79.15
2017-04-18T04:09:35.520Z,79.47
2017-04-18T04:10:16.123Z,79.25
2017-04-18T04:10:56.628Z,78.96
2017-04-18T04:11:37.157Z,79.06
2017-04-18T04:12:17.740Z,78.96
2017-04-18T04:12:58.250Z,79.44
2017-04-18T04:13:38.784Z,79.25
2017-04-18T04:14:19.410Z,79.15
2017-04-18T04:14:59.936Z,78.96
2017-04-18T04:15:40.465Z,78.96
2017-04-18T04:16:21.014Z,79.15
2017-04-18T04:17:01.551Z,79.06
2017-04-18T04:17:42.066Z,79.44
2017-04-18T04:18:22.605Z,79.53
2017-04-18T04:19:03.122Z,79.72
2017-04-18T04:19:43.652Z,79.82
2017-04-18T04:20:24.195Z,80.29
2017-04-18T04:21:04.719Z,80.95
2017-04-18T04:21:45.259Z,81.43
2017-04-18T04:22:25.768Z,81.33
2017-04-18T04:23:06.315Z,80.76
2017-04-18T04:23:46.817Z,81.33
2017-04-18T04:24:27.364Z,81.24
2017-04-18T04:25:07.890Z,81.43
2017-04-18T04:25:48.417Z,81.71
2017-04-18T04:26:28.948Z,81.71
2017-04-18T04:27:09.462Z,81.52
2017-04-18T04:27:49.975Z,81.43
2017-04-18T04:28:30.513Z,81.43
2017-04-18T04:29:11.043Z,81.43
2017-04-18T04:29:51.566Z,81.33
2017-04-18T04:30:32.097Z,81.81
2017-04-18T04:31:12.631Z,81.52
2017-04-18T04:31:53.146Z,81.43
2017-04-18T04:32:33.668Z,81.71
2017-04-18T04:33:14.179Z,81.62
2017-04-18T04:33:54.720Z,81.62
2017-04-18T04:34:35.245Z,81.52
2017-04-18T04:35:15.773Z,81.24
2017-04-18T04:35:56.310Z,81.43
2017-04-18T04:36:36.824Z,81.81
2017-04-18T04:37:17.366Z,81.81
2017-04-18T04:37:57.962Z,81.24
2017-04-18T04:38:38.503Z,80.86
2017-04-18T04:39:19.032Z,81.43
2017-04-18T04:39:59.567Z,80.95
2017-04-18T04:40:40.104Z,81.24
2017-04-18T04:41:20.613Z,81.43
2017-04-18T04:42:01.178Z,81.62
2017-04-18T04:42:41.700Z,81.33
2017-04-18T04:43:22.218Z,81.43
2017-04-18T04:44:02.742Z,80.95
2017-04-18T04:44:43.279Z,81.33
2017-04-18T04:45:23.805Z,81.43
2017-04-18T04:46:04.314Z,81.62
2017-04-18T04:46:44.856Z,80.95
2017-04-18T04:47:25.377Z,80.57
2017-04-18T04:48:05.908Z,80.76
2017-04-18T04:48:46.455Z,80.67
2017-04-18T04:49:27.060Z,80.57
2017-04-18T04:50:07.586Z,80.67
2017-04-18T04:50:48.115Z,80.67
2017-04-18T04:51:28.664Z,80.29
2017-04-18T04:52:09.185Z,80.76
2017-04-18T04:52:49.713Z,80.29
2017-04-18T04:53:30.248Z,80.29
2017-04-18T04:54:10.760Z,80.29
2017-04-18T04:54:51.287Z,80.38
2017-04-18T04:55:31.815Z,80.29
2017-04-18T04:56:12.349Z,80.19
2017-04-18T04:56:52.880Z,80.67
2017-04-18T04:57:33.403Z,80.57
2017-04-18T04:58:13.929Z,80.1
2017-04-18T04:58:54.465Z,80.48
2017-04-18T04:59:34.978Z,80.48
2017-04-18T05:00:15.495Z,79.72
2017-04-18T05:00:56.021Z,79.63
2017-04-18T05:01:36.535Z,79.82
2017-04-18T05:02:17.062Z,79.72
2017-04-18T05:02:57.592Z,79.63
2017-04-18T05:03:38.118Z,79.91
2017-04-18T05:04:18.639Z,79.63
2017-04-18T05:04:59.167Z,79.82
2017-04-18T05:05:39.682Z,79.91
2017-04-18T05:06:20.210Z,79.91
2017-04-18T05:07:00.749Z,79.63
2017-04-18T05:07:41.281Z,79.91
2017-04-18T05:08:21.817Z,79.25
2017-04-18T05:09:02.345Z,79.53
2017-04-18T05:09:42.856Z,79.57
2017-04-18T05:10:23.387Z,79.34
2017-04-18T05:11:03.915Z,79.25
2017-04-18T05:11:44.443Z,79.44
2017-04-18T05:12:24.978Z,78.96
2017-04-18T05:13:05.506Z,78.39
2017-04-18T05:13:46.022Z,78.34
2017-04-18T05:14:26.543Z,78.49
2017-04-18T05:15:07.074Z,78.72
2017-04-18T05:15:47.588Z,78.49
2017-04-18T05:16:28.111Z,77.92
2017-04-18T05:17:08.641Z,78.11
2017-04-18T05:17:49.150Z,78.43
2017-04-18T05:18:29.651Z,77.58
2017-04-18T05:19:10.190Z,77.67
2017-04-18T05:19:50.735Z,78.02
2017-04-18T05:20:31.243Z,77.86
2017-04-18T05:21:11.791Z,77.96
2017-04-18T05:21:52.276Z,77.67
2017-04-18T05:22:32.782Z,77.39
2017-04-18T05:23:13.307Z,77.77
2017-04-18T05:23:53.845Z,77.2
2017-04-18T05:24:34.358Z,77.39
2017-04-18T05:25:14.900Z,77.39
2017-04-18T05:25:55.426Z,77.39
2017-04-18T05:26:35.959Z,77.48
2017-04-18T05:27:16.501Z,76.73
2017-04-18T05:27:57.024Z,76.82
2017-04-18T05:28:37.535Z,76.73
2017-04-18T05:29:18.075Z,77.16
2017-04-18T05:29:58.606Z,77.48
2017-04-18T05:30:39.140Z,77.83
2017-04-18T05:31:19.646Z,78.67
2017-04-18T05:32:00.167Z,78.77
2017-04-18T05:32:40.692Z,78.62
2017-04-18T05:33:21.224Z,79.15
2017-04-18T05:34:01.745Z,79.44
2017-04-18T05:34:42.276Z,79.82
2017-04-18T05:35:22.804Z,80.67
2017-04-18T05:36:03.317Z,80.67
2017-04-18T05:36:43.831Z,80.48
2017-04-18T05:37:24.384Z,79.82
2017-04-18T05:38:04.912Z,79.53
2017-04-18T05:38:45.456Z,79.91
2017-04-18T05:39:26.007Z,79.91
2017-04-18T05:40:06.550Z,80.48
2017-04-18T05:40:47.076Z,80.19
2017-04-18T05:41:27.610Z,80.48
2017-04-18T05:42:08.129Z,80.29
2017-04-18T05:42:48.652Z,80.76
2017-04-18T05:43:29.199Z,80.76
2017-04-18T05:44:09.737Z,81.24
2017-04-18T05:44:50.265Z,81.05
2017-04-18T05:45:30.809Z,81.43
2017-04-18T05:46:11.319Z,81.62
2017-04-18T05:46:51.861Z,81.24
2017-04-18T05:47:32.376Z,81.62
2017-04-18T05:48:12.908Z,81.14
2017-04-18T05:48:53.449Z,81.52
2017-04-18T05:49:33.951Z,81.71
2017-04-18T05:50:14.462Z,81.14
2017-04-18T05:50:54.963Z,80.76
2017-04-18T05:51:35.538Z,80.76
2017-04-18T05:52:16.329Z,80.57
2017-04-18T05:52:57.004Z,81.9
2017-04-18T05:53:37.500Z,82.18
2017-04-18T05:54:18.025Z,82.28
2017-04-18T05:54:58.535Z,82.28
2017-04-18T05:55:39.058Z,82.47
2017-04-18T05:56:19.557Z,82.94
2017-04-18T05:57:00.103Z,83.23
2017-04-18T05:57:40.623Z,83.13
2017-04-18T05:58:21.159Z,83.13
2017-04-18T05:59:01.750Z,83.13
2017-04-18T05:59:42.260Z,82.75
2017-04-18T06:00:22.817Z,82.47
2017-04-18T06:01:03.476Z,82.94
2017-04-18T06:01:43.975Z,82.28
2017-04-18T06:02:24.692Z,81.99
2017-04-18T06:03:05.158Z,82.75
2017-04-18T06:03:45.703Z,82.75
2017-04-18T06:04:26.227Z,83.13
2017-04-18T06:05:06.886Z,83.04
2017-04-18T06:05:47.359Z,82.94
2017-04-18T06:06:27.965Z,82.85
2017-04-18T06:07:08.576Z,83.04
2017-04-18T06:07:49.217Z,83.8
2017-04-18T06:08:29.854Z,84.46
2017-04-18T06:09:10.516Z,84.65
2017-04-18T06:09:51.096Z,84.74
2017-04-18T06:10:31.746Z,84.84
2017-04-18T06:11:12.481Z,84.08
2017-04-18T06:11:52.999Z,84.08
2017-04-18T06:12:33.602Z,83.89
2017-04-18T06:13:14.072Z,83.51
2017-04-18T06:13:54.688Z,84.46
2017-04-18T06:14:35.283Z,84.17
2017-04-18T06:15:15.923Z,84.27
2017-04-18T06:15:56.524Z,84.17
2017-04-18T06:16:37.110Z,84.36
2017-04-18T06:17:17.609Z,84.46
2017-04-18T06:17:58.259Z,84.46
2017-04-18T06:18:38.986Z,84.27
2017-04-18T06:19:19.729Z,84.27
2017-04-18T06:20:00.490Z,83.61
2017-04-18T06:20:41.368Z,83.61
2017-04-18T06:21:21.901Z,84.27
2017-04-18T06:22:02.593Z,84.27
2017-04-18T06:22:43.156Z,84.27
2017-04-18T06:23:23.821Z,84.84
2017-04-18T06:24:04.399Z,84.46
2017-04-18T06:24:44.999Z,84.55
2017-04-18T06:25:25.503Z,85.41
2017-04-18T06:26:06.139Z,85.31
2017-04-18T06:26:46.819Z,85.31
2017-04-18T06:27:27.428Z,84.55
2017-04-18T06:28:08.184Z,84.94
2017-04-18T06:28:48.782Z,84.27
2017-04-18T06:29:29.419Z,84.46
2017-04-18T06:30:10.304Z,84.08
2017-04-18T06:30:50.899Z,83.61
2017-04-18T06:31:31.555Z,83.98
2017-04-18T06:32:12.263Z,84.36
2017-04-18T06:32:52.873Z,83.98
2017-04-18T06:33:33.671Z,84.36
2017-04-18T06:34:14.462Z,83.7
2017-04-18T06:34:55.199Z,83.61
2017-04-18T06:35:35.954Z,83.89
2017-04-18T06:36:16.738Z,83.51
2017-04-18T06:36:57.288Z,83.13
2017-04-18T06:37:38.101Z,83.51
2017-04-18T06:38:18.744Z,83.42
2017-04-18T06:38:59.449Z,84.46
2017-04-18T06:39:40.321Z,83.84
2017-04-18T06:40:21.114Z,83.55
2017-04-18T06:41:01.796Z,83.55
2017-04-18T06:41:42.494Z,83.17
2017-04-18T06:42:23.138Z,84.5
2017-04-18T06:43:03.904Z,84.5
2017-04-18T06:43:44.484Z,86.02
2017-04-18T06:44:25.077Z,85.45
2017-04-18T06:45:05.738Z,86.4
2017-04-18T06:45:46.384Z,86.02
2017-04-18T06:46:27.087Z,85.78
2017-04-18T06:47:07.690Z,85.83
2017-04-18T06:47:48.315Z,85.64
2017-04-18T06:48:28.937Z,85.55
2017-04-18T06:49:09.643Z,85.26
2017-04-18T06:49:50.368Z,84.88
2017-04-18T06:50:30.937Z,84.69
2017-04-18T06:51:11.678Z,84.69
2017-04-18T06:51:52.295Z,84.69
2017-04-18T06:52:32.882Z,84.5
2017-04-18T06:53:13.402Z,84.88
2017-04-18T06:53:54.066Z,84.31
2017-04-18T06:54:34.572Z,84.41
2017-04-18T06:55:15.085Z,84.78
2017-04-18T06:55:55.624Z,84.5
2017-04-18T06:56:36.188Z,84.5
2017-04-18T06:57:16.759Z,84.31
2017-04-18T06:57:57.267Z,84.88
2017-04-18T06:58:37.792Z,84.41
2017-04-18T06:59:18.330Z,84.31
2017-04-18T06:59:58.856Z,84.31
2017-04-18T07:00:39.456Z,84.12
2017-04-18T07:01:19.999Z,84.31
2017-04-18T07:02:00.484Z,84.5
2017-04-18T07:02:41.026Z,84.5
2017-04-18T07:03:21.556Z,83.59
2017-04-18T07:04:02.064Z,83.59
2017-04-18T07:04:42.618Z,83.97
2017-04-18T07:05:23.151Z,84.45
2017-04-18T07:06:03.681Z,84.55
2017-04-18T07:06:44.203Z,84.83
2017-04-18T07:07:24.762Z,84.92
2017-04-18T07:08:05.242Z,84.83
2017-04-18T07:08:45.789Z,85.4
2017-04-18T07:09:26.308Z,85.21
2017-04-18T07:10:06.949Z,85.4
2017-04-18T07:10:47.779Z,86.25
2017-04-18T07:11:28.371Z,85.87
2017-04-18T07:12:08.952Z,86.25
2017-04-18T07:12:49.515Z,86.25
2017-04-18T07:13:30.090Z,85.59
2017-04-18T07:14:10.744Z,85.78
2017-04-18T07:14:51.334Z,85.78
2017-04-18T07:15:31.937Z,86.25
2017-04-18T07:16:12.563Z,86.16
2017-04-18T07:16:53.134Z,86.25
2017-04-18T07:17:33.799Z,86.54
2017-04-18T07:18:14.405Z,86.25
2017-04-18T07:18:55.046Z,86.54
2017-04-18T07:19:35.583Z,86.63
2017-04-18T07:20:16.211Z,87.39
2017-04-18T07:20:56.765Z,87.58
2017-04-18T07:21:37.377Z,87.39
2017-04-18T07:22:17.933Z,87.58
2017-04-18T07:22:58.700Z,87.58
2017-04-18T07:23:39.335Z,87.39
2017-04-18T07:24:19.892Z,87.58
2017-04-18T07:25:00.534Z,88.48
2017-04-18T07:25:41.045Z,87.82
2017-04-18T07:26:21.595Z,88.48
2017-04-18T07:27:02.254Z,88.39
2017-04-18T07:27:42.820Z,88.67
2017-04-18T07:28:23.353Z,88.67
2017-04-18T07:29:03.850Z,88.57
2017-04-18T07:29:44.393Z,88.95
2017-04-18T07:30:24.919Z,88.95
2017-04-18T07:31:05.450Z,88.95
2017-04-18T07:31:45.978Z,89.72
2017-04-18T07:32:26.480Z,90
2017-04-18T07:33:06.999Z,89.72
2017-04-18T07:33:47.526Z,90.47
2017-04-18T07:34:28.048Z,90.38
2017-04-18T07:35:08.596Z,90.19
2017-04-18T07:35:49.129Z,90.66
2017-04-18T07:36:29.653Z,91.09
2017-04-18T07:37:10.187Z,91.42
2017-04-18T07:37:50.707Z,91.19
2017-04-18T07:38:31.236Z,91.47
2017-04-18T07:39:11.751Z,91.38
2017-04-18T07:39:52.282Z,91.66
2017-04-18T07:40:32.792Z,92.23
2017-04-18T07:41:13.295Z,92.71
2017-04-18T07:41:53.829Z,93.84
2017-04-18T07:42:34.356Z,94.51
2017-04-18T07:43:14.882Z,94.6
2017-04-18T07:43:55.413Z,94.7
2017-04-18T07:44:35.921Z,94.7
2017-04-18T07:45:16.439Z,95.27
2017-04-18T07:45:56.983Z,95.08
2017-04-18T07:46:37.485Z,96.03
2017-04-18T07:47:18.014Z,96.03
2017-04-18T07:47:58.537Z,96.12
2017-04-18T07:48:39.036Z,96.69
2017-04-18T07:49:19.562Z,96.88
2017-04-18T07:50:00.088Z,96.6
2017-04-18T07:50:40.606Z,96.41
2017-04-18T07:51:21.139Z,97.55
2017-04-18T07:52:01.669Z,97.55
2017-04-18T07:52:42.180Z,97.45
2017-04-18T07:53:22.703Z,97.5
2017-04-18T07:54:03.267Z,98.26
2017-04-18T07:54:43.808Z,97.97
2017-04-18T07:55:24.308Z,97.88
2017-04-18T07:56:04.838Z,97.97
2017-04-18T07:56:45.353Z,98.36
2017-04-18T07:57:25.907Z,99.5
2017-04-18T07:58:06.419Z,99.97
2017-04-18T07:58:46.955Z,99.99
2017-04-18T07:59:27.487Z,99.99
2017-04-18T08:00:08.006Z,99.99
2017-04-18T08:00:48.542Z,99.99
2017-04-18T08:01:29.061Z,99.99
2017-04-18T08:02:09.603Z,99.99
2017-04-18T08:02:50.116Z,99.99
2017-04-18T08:03:30.640Z,99.99
2017-04-18T08:04:11.153Z,99.99
2017-04-18T08:04:51.687Z,99.99
2017-04-18T08:05:32.213Z,99.99
2017-04-18T08:06:12.730Z,99.99
2017-04-18T08:06:53.272Z,99.99
2017-04-18T08:07:33.803Z,99.99
2017-04-18T08:08:14.345Z,99.99
2017-04-18T08:08:54.870Z,99.99
2017-04-18T08:09:35.392Z,99.99
2017-04-18T08:10:15.916Z,99.99
2017-04-18T08:10:56.456Z,99.99
2017-04-18T08:11:36.995Z,99.99
2017-04-18T08:12:17.509Z,99.99
2017-04-18T08:12:58.049Z,99.99
2017-04-18T08:13:38.566Z,99.99
2017-04-18T08:14:19.091Z,99.99
2017-04-18T08:15:00.528Z,99.99
2017-04-18T08:15:41.010Z,99.99
2017-04-18T08:16:21.523Z,99.99
2017-04-18T08:17:02.053Z,99.99
2017-04-18T08:17:42.561Z,99.99
2017-04-18T08:18:23.078Z,99.99
2017-04-18T08:19:03.607Z,99.99
2017-04-18T08:19:44.137Z,99.99
2017-04-18T08:20:24.656Z,99.99
2017-04-18T08:21:05.159Z,99.99
2017-04-18T08:21:45.675Z,99.99
2017-04-18T08:22:26.195Z,99.99
2017-04-18T08:23:06.730Z,99.99
2017-04-18T08:23:47.275Z,99.99
2017-04-18T08:24:27.768Z,99.99
2017-04-18T08:25:08.293Z,99.99
2017-04-18T08:25:48.807Z,99.99
2017-04-18T08:26:29.336Z,99.99
2017-04-18T08:27:09.857Z,99.99
2017-04-18T08:27:50.384Z,99.99
2017-04-18T08:28:30.925Z,99.99
2017-04-18T08:29:11.451Z,99.99
2017-04-18T08:29:51.976Z,99.99
2017-04-18T08:30:32.493Z,99.99
2017-04-18T08:31:13.005Z,99.99
2017-04-18T08:31:53.571Z,99.99
2017-04-18T08:32:34.144Z,99.99
2017-04-18T08:33:14.715Z,99.99
2017-04-18T08:33:55.225Z,99.99
2017-04-18T08:34:35.745Z,99.99
2017-04-18T08:35:16.283Z,99.99
2017-04-18T08:35:56.812Z,99.99
2017-04-18T08:36:37.329Z,99.99
2017-04-18T08:37:17.840Z,99.99
2017-04-18T08:37:58.376Z,99.99
2017-04-18T08:38:38.912Z,99.99
2017-04-18T08:39:19.430Z,99.99
2017-04-18T08:39:59.947Z,99.99
2017-04-18T08:40:40.478Z,99.99
2017-04-18T08:41:21.008Z,99.99
2017-04-18T08:42:01.514Z,99.99
2017-04-18T08:42:42.019Z,99.99
2017-04-18T08:43:22.559Z,99.99
2017-04-18T08:44:03.080Z,99.99